RKSO/OSN METAR and TAF weather

Enter ICAO airport designator
Station Type Date Time Source
RKSO METAR 2019/12/08 00:58 UTC NOAA

RKSO 080058Z 08003KT 3SM BR CLR M03/M04 A3043 RMK AO2A SLP309 T10271038 $


Station Type Date Time Source
RKSO Decoded METAR 2019/12/08 00:58 UTC NOAA

Osan Ab, Korea, South (RKSO) 37-06N 127-02E 12M
Dec 07, 2019 - 07:58 PM EST / 2019.12.08 0058 UTC
Wind: from the E (080 degrees) at 3 MPH (3 KT):0
Visibility: 3 mile(s):0
Sky conditions: clear
Weather: mist
Temperature: 27.1 F (-2.7 C)
Dew Point: 25.2 F (-3.8 C)
Relative Humidity: 92%
Pressure (altimeter): 30.43 in. Hg (1030 hPa)
ob: RKSO 080058Z 08003KT 3SM BR CLR M03/M04 A3043 RMK AO2A SLP309 T10271038
cycle: 1

Station Type Date Time Source
RKSO TAF 2019/12/08 01:09 UTC NOAA

TAF TAF RKSO 080100Z 0801/0907 07006KT 4800 BR SKC QNH3039INS
BECMG 0801/0803 VRB03KT 9999 NSW FEW020 QNH3045INS
BECMG 0817/0818 12006KT 9999 BKN030 QNH3036INS TX04/0806Z TNM07/0821Z

Example: see airport list